Hauptseite
METAR-TAF:

METAR-TAF

Flughäfen :

Flughafen Derry

Derry, Nordirland

Breite: 55-03N, Länge: 007-09W, Höhe: 9 m

Beobachtung

Neuester Wetterbericht von vor 39 Minuten, um 07:20 UTC
Wind 3 kt aus West/Südwest
Temperatur 9°C
Luftfeuchtigkeit 93%
Luftdruck 1030 hPa
Sichtweite 10 km oder mehr
Leicht bewölkt in der Höhe von 2500 ft
Aufgelockert bewölkt in der Höhe von 4900 ft

METAR: EGAE 180720Z 24003KT 9999 FEW025 SCT049 09/08 Q1030

Zeit: 08:59 (07:59 UTC)

Prognose

Neuester Wetterbericht von vor 2 Stunden und 32 Minuten, um 05:27 UTC
Gültige Prognose vom 18 um 06 UTC bis 18 um 15 UTC
Wind 4 kt aus West/Nordwest
Sichtweite 10 km oder mehr
Leicht bewölkt in der Höhe von 2000 ft

TAF: EGAE 180527Z 1806/1815 29004KT 9999 FEW020

Wetterbeobachtungen und Prognosen von mehr als 4000 Flughäfen (METAR und TAF Bericht).

Die verfügbaren Stationen werden durch gelbe und rote Markierungen auf der Karte dargestellt.

Führen Sie die Maus auf sie, um den Namen der Station zu sehen.

Darauf klicken, um die Beobachtung von Wetterbeobachtungen und Prognosen zu sehen.

Um die Karte zu ändern : klicken Sie auf den grünen Tasten mit einem schwarzen Kreuz Zum Vergrößern, auf den grünen Button mit einem Gedankenstrich zu verkleinern, oder auf die grünen Pfeile für benachbarte Karten.


METAR-TAF: